Time;durP1;ratioP1;P1;durP2;ratioP2;P2;SDS_P1;SDS_P2;PMS_P1;PMS_P2;Temp;Humidity;BMP_temperature;BMP_pressure;BME280_temperature;BME280_humidity;BME280_pressure;Samples;Min_cycle;Max_cycle;Signal;HPM_P1;HPM_P2
2022/01/29 00:01:26;;;;;;;2.83;2.55;;;;;;;1.98;98.00;98639.48;1701388;83;21051;-75
2022/01/29 00:03:53;;;;;;;3.60;1.87;;;;;;;1.98;97.98;98635.50;1727426;82;21093;-73
2022/01/29 00:06:19;;;;;;;1.75;1.65;;;;;;;1.99;97.80;98650.38;1706152;83;21074;-74
2022/01/29 00:08:47;;;;;;;2.35;2.15;;;;;;;1.99;97.71;98641.61;1726442;82;20982;-78
2022/01/29 00:11:16;;;;;;;1.70;1.60;;;;;;;1.98;97.54;98651.41;1740248;82;21515;-74
2022/01/29 00:13:42;;;;;;;1.72;1.62;;;;;;;1.97;97.21;98649.78;1740184;81;21034;-80
2022/01/29 00:16:09;;;;;;;1.92;1.82;;;;;;;1.96;97.11;98660.12;1737882;82;21019;-82
2022/01/29 00:18:35;;;;;;;2.25;2.02;;;;;;;1.92;97.02;98684.09;1710433;81;21659;-78
2022/01/29 00:21:02;;;;;;;1.50;1.40;;;;;;;1.90;97.03;98677.41;1670784;84;21165;-75
2022/01/29 00:23:28;;;;;;;2.37;1.80;;;;;;;1.89;96.96;98665.17;1694619;84;21066;-78
2022/01/29 00:25:55;;;;;;;1.02;1.02;;;;;;;1.90;97.08;98663.64;1702601;81;20970;-71
2022/01/29 00:28:21;;;;;;;2.12;1.65;;;;;;;1.90;96.96;98684.03;1725378;83;20998;-73
2022/01/29 00:30:48;;;;;;;1.40;1.30;;;;;;;1.89;96.97;98676.59;1729452;81;20970;-72
2022/01/29 00:33:15;;;;;;;1.40;1.30;;;;;;;1.88;96.92;98660.37;1734818;82;21343;-78
2022/01/29 00:35:41;;;;;;;1.17;1.10;;;;;;;1.86;96.87;98682.84;1735309;82;20962;-77
2022/01/29 00:38:08;;;;;;;2.75;1.62;;;;;;;1.87;96.84;98668.03;1730720;81;21547;-77
2022/01/29 00:40:36;;;;;;;2.10;2.00;;;;;;;1.88;96.85;98671.50;1748341;81;21057;-74
2022/01/29 00:43:04;;;;;;;1.65;1.55;;;;;;;1.89;96.81;98676.59;1705913;82;20982;-74
2022/01/29 00:45:32;;;;;;;1.70;1.60;;;;;;;1.89;96.66;98667.31;1748434;81;22014;-82
2022/01/29 00:47:59;;;;;;;1.20;1.10;;;;;;;1.86;96.54;98679.69;1732644;81;21052;-78
2022/01/29 00:50:26;;;;;;;1.37;1.27;;;;;;;1.85;96.50;98686.02;1744865;81;20955;-72
2022/01/29 00:52:52;;;;;;;1.17;1.17;;;;;;;1.84;96.51;98690.20;1705738;82;21022;-82
2022/01/29 00:55:18;;;;;;;1.95;1.67;;;;;;;1.82;96.53;98699.72;1705635;82;21014;-74
2022/01/29 00:57:50;;;;;;;1.30;1.20;;;;;;;1.83;96.54;98686.73;1706041;82;21100;-85
2022/01/29 01:00:19;;;;;;;1.50;1.40;;;;;;;1.86;96.53;98692.13;1759879;81;20985;-76
2022/01/29 01:02:48;;;;;;;2.25;1.57;;;;;;;1.86;96.46;98677.55;1709878;81;20942;-81
2022/01/29 01:05:15;;;;;;;1.98;1.80;;;;;;;1.85;96.35;98693.15;1725639;82;21403;-78
2022/01/29 01:07:41;;;;;;;1.50;1.40;;;;;;;1.82;96.37;98703.69;1743193;81;21546;-76
2022/01/29 01:10:11;;;;;;;1.80;1.70;;;;;;;1.81;96.50;98707.88;1761042;81;21535;-81
2022/01/29 01:12:37;;;;;;;1.55;1.40;;;;;;;1.75;96.48;98695.78;1731126;81;21009;-82
2022/01/29 01:15:05;;;;;;;3.00;1.77;;;;;;;1.73;96.60;98684.58;1732802;81;20981;-75
2022/01/29 01:17:32;;;;;;;2.33;1.57;;;;;;;1.73;96.74;98692.53;1718269;82;21060;-78
2022/01/29 01:19:58;;;;;;;2.37;2.17;;;;;;;1.72;96.79;98701.53;1682660;81;21106;-75
2022/01/29 01:22:24;;;;;;;2.45;1.30;;;;;;;1.69;96.86;98688.70;1755174;81;21127;-79
2022/01/29 01:24:50;;;;;;;1.50;1.40;;;;;;;1.68;97.04;98720.19;1697177;83;21752;-78
2022/01/29 01:27:17;;;;;;;1.60;1.50;;;;;;;1.65;97.08;98699.44;1728664;81;21061;-76
2022/01/29 01:29:43;;;;;;;1.40;1.30;;;;;;;1.62;97.20;98714.97;1705380;82;21005;-74
2022/01/29 01:32:11;;;;;;;1.47;1.37;;;;;;;1.60;97.31;98707.73;1744252;81;21049;-78
2022/01/29 01:34:43;;;;;;;1.22;1.12;;;;;;;1.61;97.26;98714.66;1732779;81;21077;-78
2022/01/29 01:37:11;;;;;;;2.47;1.40;;;;;;;1.63;97.22;98711.30;1732679;81;21045;-80
2022/01/29 01:39:38;;;;;;;1.45;1.35;;;;;;;1.60;96.99;98731.07;1759160;81;21464;-79
2022/01/29 01:42:06;;;;;;;1.75;1.65;;;;;;;1.60;96.95;98719.14;1760833;81;20951;-78
2022/01/29 01:44:37;;;;;;;1.20;1.15;;;;;;;1.57;96.76;98724.89;1712437;82;21121;-77
2022/01/29 01:47:04;;;;;;;1.12;1.10;;;;;;;1.56;96.67;98740.48;1734342;82;21043;-80
2022/01/29 01:49:30;;;;;;;1.27;1.22;;;;;;;1.56;96.72;98725.09;1736531;82;21554;-77
2022/01/29 01:51:57;;;;;;;1.70;1.60;;;;;;;1.56;96.71;98725.09;1735385;82;20942;-81
2022/01/29 01:54:23;;;;;;;1.07;1.05;;;;;;;1.56;96.55;98750.27;1706666;82;21039;-82
2022/01/29 01:56:50;;;;;;;1.05;1.05;;;;;;;1.56;96.45;98778.90;1749415;81;21065;-86
2022/01/29 01:59:16;;;;;;;1.02;1.02;;;;;;;1.58;96.34;98737.09;1761419;81;21153;-88
2022/01/29 02:01:45;;;;;;;1.52;1.20;;;;;;;1.62;96.29;98757.36;1762840;81;21041;-86
2022/01/29 02:04:11;;;;;;;1.67;1.32;;;;;;;1.61;96.15;98756.55;1733213;81;21597;-78
2022/01/29 02:06:38;;;;;;;2.10;1.52;;;;;;;1.59;96.07;98757.27;1752372;81;21069;-84
2022/01/29 02:09:04;;;;;;;1.75;1.35;;;;;;;1.59;96.10;98760.42;1739113;81;21003;-87
2022/01/29 02:11:31;;;;;;;1.35;1.25;;;;;;;1.57;96.22;98761.17;1718397;81;21173;-81
2022/01/29 02:13:58;;;;;;;1.32;1.30;;;;;;;1.51;97.05;98755.39;1725360;81;21012;-83
2022/01/29 02:16:27;;;;;;;1.32;1.30;;;;;;;1.49;97.51;98775.98;1754557;81;21485;-86
2022/01/29 02:18:53;;;;;;;1.77;1.67;;;;;;;1.48;97.39;98767.76;1739944;81;21582;-81
2022/01/29 02:21:19;;;;;;;1.30;1.13;;;;;;;1.43;97.65;98782.16;1758831;81;20962;-75
2022/01/29 02:23:46;;;;;;;1.40;1.30;;;;;;;1.44;97.83;98790.41;1732145;81;21061;-73
2022/01/29 02:26:12;;;;;;;1.17;1.17;;;;;;;1.40;98.02;98778.59;1760765;80;20997;-73
2022/01/29 02:28:39;;;;;;;1.20;1.17;;;;;;;1.40;98.08;98796.62;1760245;80;20934;-76
2022/01/29 02:31:05;;;;;;;1.40;1.30;;;;;;;1.38;98.39;98793.90;1731395;81;21507;-72
2022/01/29 02:33:35;;;;;;;1.00;1.00;;;;;;;1.35;98.56;98781.87;1746076;81;22342;-75
2022/01/29 02:36:03;;;;;;;1.05;1.05;;;;;;;1.32;98.82;98799.53;1759180;81;21138;-74
2022/01/29 02:38:30;;;;;;;1.52;1.30;;;;;;;1.33;98.99;98800.34;1739707;81;21056;-77
2022/01/29 02:41:03;;;;;;;1.67;1.57;;;;;;;1.35;99.06;98808.36;1728323;81;21002;-78
2022/01/29 02:43:30;;;;;;;1.55;1.45;;;;;;;1.34;99.29;98813.89;1758171;81;21062;-76
2022/01/29 02:45:56;;;;;;;1.98;1.52;;;;;;;1.30;99.42;98812.97;1712206;81;21021;-78
2022/01/29 02:48:23;;;;;;;1.45;1.35;;;;;;;1.29;99.58;98833.07;1735730;81;21011;-77
2022/01/29 02:50:50;;;;;;;2.47;1.22;;;;;;;1.25;99.75;98821.25;1735616;81;20938;-77
2022/01/29 02:53:17;;;;;;;1.45;1.35;;;;;;;1.22;99.96;98827.80;1735407;81;21563;-77
2022/01/29 02:55:43;;;;;;;1.67;1.57;;;;;;;1.22;100.00;98825.14;1735267;81;21319;-77
2022/01/29 02:58:10;;;;;;;1.25;1.10;;;;;;;1.22;100.00;98834.41;1741792;81;21093;-80
2022/01/29 03:00:37;;;;;;;1.37;1.30;;;;;;;1.21;100.00;98836.75;1755114;81;21109;-78
2022/01/29 03:03:03;;;;;;;1.32;1.22;;;;;;;1.22;100.00;98839.71;1737734;82;20963;-77
2022/01/29 03:05:30;;;;;;;1.45;1.35;;;;;;;1.23;100.00;98851.12;1712928;82;20911;-76
2022/01/29 03:07:56;;;;;;;1.40;1.30;;;;;;;1.25;100.00;98853.03;1712268;82;20973;-77
2022/01/29 03:10:25;;;;;;;1.30;1.20;;;;;;;1.25;100.00;98855.67;1726197;82;21066;-75
2022/01/29 03:12:52;;;;;;;1.30;1.20;;;;;;;1.24;100.00;98841.65;1707277;82;21162;-80
2022/01/29 03:15:18;;;;;;;1.20;1.20;;;;;;;1.21;100.00;98872.50;1709611;82;21511;-77
2022/01/29 03:17:45;;;;;;;1.40;1.30;;;;;;;1.21;100.00;98874.34;1713604;81;20980;-76
2022/01/29 03:20:11;;;;;;;1.43;1.33;;;;;;;1.21;100.00;98870.36;1749071;81;20979;-76
2022/01/29 03:22:39;;;;;;;1.40;1.30;;;;;;;1.20;100.00;98882.00;1714557;82;21022;-77
2022/01/29 03:25:08;;;;;;;0.93;0.93;;;;;;;1.18;100.00;98865.50;1728038;81;40457;-76
2022/01/29 03:27:35;;;;;;;1.40;1.30;;;;;;;1.16;100.00;98878.94;1722301;82;20952;-76
2022/01/29 03:30:04;;;;;;;1.35;1.25;;;;;;;1.16;100.00;98888.20;1725724;82;21053;-77
2022/01/29 03:32:30;;;;;;;1.10;1.10;;;;;;;1.18;100.00;98907.36;1708288;82;21035;-78
2022/01/29 03:34:57;;;;;;;1.30;1.20;;;;;;;1.18;100.00;98878.73;1705772;82;21049;-76
2022/01/29 03:37:23;;;;;;;1.53;1.40;;;;;;;1.17;100.00;98897.78;1705699;82;21039;-77
2022/01/29 03:39:52;;;;;;;1.67;1.57;;;;;;;1.17;100.00;98893.00;1734796;81;21030;-76
2022/01/29 03:42:18;;;;;;;1.50;1.40;;;;;;;1.17;100.00;98899.11;1705889;82;21054;-77
2022/01/29 03:44:45;;;;;;;1.30;1.20;;;;;;;1.16;100.00;98900.12;1736679;81;20958;-77
2022/01/29 03:47:12;;;;;;;1.32;1.22;;;;;;;1.18;100.00;98903.89;1707819;82;21058;-75
2022/01/29 03:49:38;;;;;;;1.20;1.10;;;;;;;1.18;100.00;98899.41;1724802;82;21890;-75
2022/01/29 03:52:04;;;;;;;1.10;1.10;;;;;;;1.18;100.00;98907.36;1734867;82;21540;-75
2022/01/29 03:54:31;;;;;;;1.33;1.30;;;;;;;1.16;100.00;98932.41;1705911;82;21070;-74
2022/01/29 03:56:57;;;;;;;1.00;1.00;;;;;;;1.16;100.00;98917.84;1739005;81;21019;-77
2022/01/29 03:59:24;;;;;;;1.80;1.37;;;;;;;1.19;100.00;98923.56;1733272;82;21077;-76
2022/01/29 04:01:50;;;;;;;2.02;1.37;;;;;;;1.18;100.00;98935.67;1706519;82;21073;-75
2022/01/29 04:04:16;;;;;;;1.50;1.40;;;;;;;1.18;100.00;98945.76;1730191;82;20935;-74
2022/01/29 04:06:43;;;;;;;1.02;1.00;;;;;;;1.16;100.00;98920.48;1730910;81;21026;-83
2022/01/29 04:09:11;;;;;;;1.67;1.17;;;;;;;1.13;100.00;98916.95;1705936;82;21144;-76
2022/01/29 04:11:39;;;;;;;2.57;1.30;;;;;;;1.12;100.00;98935.17;1734880;82;21539;-77
2022/01/29 04:14:15;;;;;;;1.40;1.30;;;;;;;1.12;100.00;98948.41;1705677;82;22135;-81
2022/01/29 04:16:37;;;;;;;2.13;1.33;;;;;;;1.12;99.83;98949.23;1712368;82;20975;-81
2022/01/29 04:19:04;;;;;;;1.00;1.00;;;;;;;1.14;99.73;98950.36;1734912;82;21057;-80
2022/01/29 04:21:30;;;;;;;1.37;1.20;;;;;;;1.15;99.13;98947.48;1714739;81;20982;-80
2022/01/29 04:23:58;;;;;;;1.10;1.10;;;;;;;1.18;98.98;98937.00;1760592;81;20998;-81
2022/01/29 04:26:24;;;;;;;1.17;1.17;;;;;;;1.20;98.49;98976.02;1732424;81;21048;-81
2022/01/29 04:28:52;;;;;;;1.00;1.00;;;;;;;1.18;97.51;98961.65;1759842;81;21045;-81
2022/01/29 04:31:21;;;;;;;1.07;1.00;;;;;;;1.20;97.35;98976.80;1760590;80;21476;-84
2022/01/29 04:33:46;;;;;;;1.23;1.03;;;;;;;1.21;97.10;98968.34;1755369;81;21030;-76
2022/01/29 04:36:14;;;;;;;1.47;1.37;;;;;;;1.21;96.84;98981.08;1739175;81;21021;-75
2022/01/29 04:38:41;;;;;;;0.90;0.90;;;;;;;1.22;96.57;98974.77;1705774;81;21032;-76
2022/01/29 04:41:07;;;;;;;1.07;1.07;;;;;;;1.24;96.57;98975.90;1706166;82;21017;-75
2022/01/29 04:43:36;;;;;;;1.30;1.20;;;;;;;1.25;96.64;98977.50;1734970;82;21040;-74
2022/01/29 04:46:02;;;;;;;1.10;1.00;;;;;;;1.24;96.80;98991.79;1706145;82;21583;-75
2022/01/29 04:48:29;;;;;;;2.05;1.20;;;;;;;1.21;97.04;99006.24;1747387;81;21029;-76
2022/01/29 04:50:55;;;;;;;1.37;1.27;;;;;;;1.17;97.50;98991.79;1722531;82;21040;-78
2022/01/29 04:53:21;;;;;;;1.37;1.33;;;;;;;1.12;98.06;98997.39;1735217;82;21053;-82
2022/01/29 04:55:48;;;;;;;1.27;1.23;;;;;;;1.10;98.71;99000.78;1748252;81;20991;-79
2022/01/29 04:58:14;;;;;;;1.73;1.20;;;;;;;1.03;99.64;99020.63;1736418;81;21136;-76
2022/01/29 05:00:40;;;;;;;4.43;1.20;;;;;;;0.99;100.00;99010.15;1733547;81;20989;-77
2022/01/29 05:03:12;;;;;;;1.37;1.30;;;;;;;0.97;100.00;99019.30;1761116;81;21116;-78
2022/01/29 05:05:39;;;;;;;1.40;1.30;;;;;;;0.98;100.00;99015.64;1761097;81;20974;-80
2022/01/29 05:08:07;;;;;;;1.60;1.50;;;;;;;0.95;100.00;99026.65;1732714;81;21034;-77
2022/01/29 05:10:35;;;;;;;1.43;1.33;;;;;;;0.94;100.00;99051.48;1731552;81;21050;-79
2022/01/29 05:13:11;;;;;;;1.50;1.40;;;;;;;0.95;100.00;99034.59;1758919;80;20950;-78
2022/01/29 05:15:40;;;;;;;1.90;1.60;;;;;;;0.95;100.00;99053.94;1760643;81;21129;-79
2022/01/29 05:28:53;;;;;;;2.73;1.03;;;;;;;0.93;98.72;99066.55;1722523;81;21152;-73
2022/01/29 05:31:20;;;;;;;1.00;1.00;;;;;;;0.97;98.31;99066.95;1760899;81;21337;-74
2022/01/29 05:33:46;;;;;;;1.17;1.03;;;;;;;0.97;97.48;99078.36;1734784;81;21547;-75
2022/01/29 05:36:12;;;;;;;0.97;0.97;;;;;;;0.97;96.55;99077.03;1742145;81;22251;-76
2022/01/29 05:38:39;;;;;;;0.90;0.90;;;;;;;1.00;96.02;99075.83;1718836;81;21006;-76
2022/01/29 05:41:05;;;;;;;1.17;1.07;;;;;;;1.01;94.91;99105.27;1738605;82;21538;-75
2022/01/29 05:43:32;;;;;;;0.90;0.90;;;;;;;1.02;94.27;99106.88;1738325;82;21334;-77
2022/01/29 05:45:58;;;;;;;1.23;1.23;;;;;;;1.01;93.45;99114.53;1738304;82;21149;-76
2022/01/29 05:48:24;;;;;;;1.00;1.00;;;;;;;1.03;93.32;99096.09;1743342;81;21033;-77
2022/01/29 05:50:51;;;;;;;1.20;1.17;;;;;;;1.04;93.10;99114.11;1759442;81;21073;-78
2022/01/29 05:53:17;;;;;;;0.90;0.90;;;;;;;1.04;92.97;99116.25;1747278;81;21810;-73
2022/01/29 05:55:43;;;;;;;1.30;1.30;;;;;;;1.06;92.96;99108.91;1738415;82;20946;-73
2022/01/29 05:58:09;;;;;;;2.12;1.92;;;;;;;1.06;92.92;99117.36;1749973;81;21623;-78
2022/01/29 06:00:36;;;;;;;2.17;1.30;;;;;;;1.06;93.01;99131.41;1758967;81;21019;-74
2022/01/29 06:03:06;;;;;;;1.83;1.47;;;;;;;1.08;93.03;99120.62;1759159;81;21033;-75
2022/01/29 06:05:33;;;;;;;1.17;1.17;;;;;;;1.09;93.17;99119.62;1733138;81;21531;-73
2022/01/29 06:08:00;;;;;;;1.60;1.50;;;;;;;1.10;93.18;99123.91;1724597;81;20990;-74
2022/01/29 06:10:26;;;;;;;1.53;1.43;;;;;;;1.11;93.26;99138.24;1710822;81;21061;-75
2022/01/29 06:13:10;;;;;;;1.50;1.40;;;;;;;1.12;93.36;99129.80;1735348;81;20994;-75
2022/01/29 06:15:42;;;;;;;1.50;1.40;;;;;;;1.12;93.41;99134.58;1757784;81;21010;-73
2022/01/29 06:18:15;;;;;;;4.80;1.87;;;;;;;1.14;93.45;99132.56;1758931;80;21119;-73
2022/01/29 06:20:43;;;;;;;1.10;1.02;;;;;;;1.16;93.62;99149.05;1744734;81;21053;-73
2022/01/29 06:23:10;;;;;;;1.83;1.60;;;;;;;1.17;93.70;99149.36;1759343;81;20962;-76
2022/01/29 06:25:37;;;;;;;2.30;1.33;;;;;;;1.20;93.84;99150.80;1731123;82;21023;-76
2022/01/29 06:28:04;;;;;;;1.63;1.53;;;;;;;1.19;94.04;99167.20;1738548;82;20987;-75
2022/01/29 06:30:32;;;;;;;1.50;1.40;;;;;;;1.18;94.24;99152.83;1738596;81;21041;-75
2022/01/29 06:33:10;;;;;;;1.57;1.47;;;;;;;1.15;94.60;99151.92;1707290;82;21049;-76
2022/01/29 06:35:38;;;;;;;2.57;2.27;;;;;;;1.14;94.79;99165.66;1741347;82;21516;-84
2022/01/29 06:38:07;;;;;;;2.03;1.57;;;;;;;1.13;95.15;99157.41;1710540;83;21073;-75
2022/01/29 06:40:35;;;;;;;2.07;1.97;;;;;;;1.14;95.39;99169.64;1745126;81;21023;-82
2022/01/29 06:43:03;;;;;;;2.63;2.17;;;;;;;1.11;95.76;99176.64;1720518;82;20985;-76
2022/01/29 06:45:31;;;;;;;3.20;2.27;;;;;;;1.08;95.86;99179.70;1741087;82;20998;-77
2022/01/29 06:47:58;;;;;;;2.90;2.40;;;;;;;1.09;96.10;99181.84;1727010;83;21248;-78
2022/01/29 06:50:24;;;;;;;6.60;1.60;;;;;;;1.09;96.25;99185.81;1734887;82;20991;-77
2022/01/29 06:52:51;;;;;;;1.63;1.53;;;;;;;1.10;96.47;99194.08;1721512;82;21587;-78
2022/01/29 06:55:19;;;;;;;1.97;1.77;;;;;;;1.09;96.51;99193.77;1721580;82;22034;-77
2022/01/29 06:57:45;;;;;;;1.77;1.67;;;;;;;1.09;96.59;99200.37;1745269;82;20935;-73
2022/01/29 07:00:14;;;;;;;1.70;1.60;;;;;;;1.06;96.52;99185.69;1741578;82;21047;-75
2022/01/29 07:02:40;;;;;;;2.00;1.90;;;;;;;1.01;96.70;99185.48;1702710;83;21500;-77
2022/01/29 07:05:09;;;;;;;3.07;2.10;;;;;;;1.03;96.92;99213.09;1703888;82;21098;-80
2022/01/29 07:07:35;;;;;;;2.37;1.87;;;;;;;1.03;96.98;99208.61;1744944;82;21142;-77
2022/01/29 07:10:01;;;;;;;2.85;1.95;;;;;;;1.01;96.93;99213.28;1720858;82;20970;-77
2022/01/29 07:12:28;;;;;;;1.60;1.50;;;;;;;0.99;96.70;99209.22;1713447;83;21073;-78
2022/01/29 07:14:54;;;;;;;4.37;1.67;;;;;;;0.95;96.63;99207.98;1702268;83;21015;-78
2022/01/29 07:17:22;;;;;;;3.03;1.80;;;;;;;0.91;96.59;99227.43;1715461;82;21021;-78
2022/01/29 07:19:52;;;;;;;1.90;1.70;;;;;;;0.90;96.66;99213.88;1743416;82;21712;-78
2022/01/29 07:22:20;;;;;;;2.10;1.93;;;;;;;0.93;96.83;99223.23;1727019;83;21027;-77
2022/01/29 07:24:47;;;;;;;1.63;1.40;;;;;;;0.93;96.83;99241.77;1703473;82;21015;-81
2022/01/29 07:27:13;;;;;;;1.60;1.50;;;;;;;0.95;96.85;99217.25;1744673;82;21550;-78
2022/01/29 07:29:40;;;;;;;1.73;1.50;;;;;;;0.97;96.90;99234.55;1744557;82;21505;-80
2022/01/29 07:32:06;;;;;;;2.90;2.00;;;;;;;0.96;96.84;99235.56;1743436;81;21501;-77
2022/01/29 07:34:34;;;;;;;1.73;1.50;;;;;;;0.94;96.72;99234.96;1733213;81;21599;-79
2022/01/29 07:37:00;;;;;;;1.47;1.37;;;;;;;0.94;96.63;99246.06;1733343;81;20986;-77
2022/01/29 07:39:27;;;;;;;2.87;2.67;;;;;;;0.94;96.56;99230.17;1744491;81;21086;-77
2022/01/29 07:41:53;;;;;;;2.50;1.70;;;;;;;0.92;96.46;99238.81;1760695;81;21029;-74
2022/01/29 07:44:20;;;;;;;2.00;1.80;;;;;;;0.92;96.31;99270.07;1733022;81;21791;-75
2022/01/29 07:46:47;;;;;;;2.43;2.00;;;;;;;0.91;96.11;99248.61;1732279;81;21022;-77
2022/01/29 07:49:13;;;;;;;1.80;1.67;;;;;;;0.92;95.98;99275.88;1760696;81;21495;-77
2022/01/29 07:51:40;;;;;;;1.73;1.63;;;;;;;0.88;95.59;99260.39;1760938;81;21018;-75
2022/01/29 07:54:06;;;;;;;2.57;2.07;;;;;;;0.89;95.51;99253.27;1750696;80;21029;-78
2022/01/29 07:56:33;;;;;;;1.67;1.57;;;;;;;0.90;95.33;99266.83;1733015;82;21069;-76
2022/01/29 07:59:00;;;;;;;2.57;1.90;;;;;;;0.93;95.20;99262.95;1741537;81;21009;-77
2022/01/29 08:01:26;;;;;;;1.50;1.40;;;;;;;0.95;94.95;99266.23;1736783;81;21064;-77
2022/01/29 08:03:53;;;;;;;1.60;1.50;;;;;;;0.92;94.34;99275.37;1735055;82;20989;-75
2022/01/29 08:06:22;;;;;;;2.33;2.00;;;;;;;0.93;94.26;99276.19;1757514;81;21065;-77
2022/01/29 08:08:50;;;;;;;2.40;2.20;;;;;;;0.95;94.19;99275.50;1733098;81;21030;-76
2022/01/29 08:11:18;;;;;;;3.83;2.60;;;;;;;0.94;94.14;99282.61;1760915;81;21065;-75
2022/01/29 08:13:46;;;;;;;2.20;2.00;;;;;;;0.96;93.92;99305.72;1729353;81;21634;-76
2022/01/29 08:16:14;;;;;;;2.70;2.03;;;;;;;0.96;93.96;99291.16;1741464;80;21046;-80
2022/01/29 08:18:45;;;;;;;2.57;2.30;;;;;;;0.97;93.91;99293.30;1735090;82;21070;-79
2022/01/29 08:21:14;;;;;;;4.17;1.90;;;;;;;0.97;93.80;99285.36;1735603;81;21890;-85
2022/01/29 08:23:41;;;;;;;2.97;1.80;;;;;;;0.94;93.55;99319.68;1706138;82;21042;-81
2022/01/29 08:26:08;;;;;;;2.53;1.97;;;;;;;0.93;93.48;99298.69;1737097;81;21036;-83
2022/01/29 08:28:35;;;;;;;2.20;1.83;;;;;;;0.95;93.84;99308.08;1737516;81;20993;-82
2022/01/29 08:31:02;;;;;;;1.80;1.70;;;;;;;0.98;94.01;99307.67;1733546;81;21005;-87
2022/01/29 08:33:29;;;;;;;3.20;1.70;;;;;;;0.97;93.19;99319.27;1758734;81;21962;-79
2022/01/29 08:35:57;;;;;;;1.63;1.53;;;;;;;0.95;92.73;99321.32;1735338;82;20983;-79
2022/01/29 08:38:24;;;;;;;5.20;3.23;;;;;;;0.92;92.33;99328.31;1707796;82;21570;-80
2022/01/29 08:40:52;;;;;;;3.80;2.00;;;;;;;0.93;92.08;99319.86;1756763;81;20958;-81
2022/01/29 08:43:19;;;;;;;1.90;1.80;;;;;;;0.95;91.97;99323.15;1731068;81;21009;-82
2022/01/29 08:45:45;;;;;;;2.83;2.20;;;;;;;0.93;91.28;99328.63;1717798;82;21480;-80
2022/01/29 08:48:12;;;;;;;1.77;1.67;;;;;;;0.96;91.27;99323.46;1752908;81;21525;-84
2022/01/29 08:50:40;;;;;;;3.00;2.70;;;;;;;0.96;90.74;99334.05;1754926;81;20982;-81
2022/01/29 08:53:07;;;;;;;1.83;1.73;;;;;;;0.96;90.66;99338.02;1713906;81;21095;-82
2022/01/29 08:55:37;;;;;;;4.37;2.20;;;;;;;0.96;90.46;99338.81;1705607;82;21014;-80
2022/01/29 08:58:05;;;;;;;2.57;2.03;;;;;;;0.97;90.15;99347.08;1735339;82;21022;-76
2022/01/29 09:00:32;;;;;;;2.22;1.82;;;;;;;0.98;90.03;99334.16;1702361;82;21026;-84
2022/01/29 09:03:00;;;;;;;2.47;2.27;;;;;;;0.99;89.91;99345.06;1716676;81;21030;-82
2022/01/29 09:05:26;;;;;;;4.70;3.10;;;;;;;0.98;89.75;99352.69;1722379;81;21618;-80
2022/01/29 09:07:54;;;;;;;2.43;2.10;;;;;;;0.98;89.75;99338.13;1749677;81;21082;-77
2022/01/29 09:10:20;;;;;;;3.33;2.20;;;;;;;0.98;89.51;99355.83;1738131;81;21087;-79
2022/01/29 09:12:48;;;;;;;2.40;2.17;;;;;;;0.97;89.44;99376.20;1738098;82;21054;-84
2022/01/29 09:15:16;;;;;;;2.83;1.97;;;;;;;0.96;89.57;99348.61;1733910;82;21603;-80
2022/01/29 09:17:43;;;;;;;2.63;2.07;;;;;;;0.93;89.44;99361.72;1674173;84;20994;-82
2022/01/29 09:20:10;;;;;;;1.80;1.70;;;;;;;0.92;89.32;99346.84;1672900;85;21007;-80
2022/01/29 09:22:37;;;;;;;3.10;2.80;;;;;;;0.94;89.29;99354.59;1668841;84;21543;-81
2022/01/29 09:25:04;;;;;;;3.50;3.20;;;;;;;0.94;89.25;99346.66;1702764;83;21094;-80
2022/01/29 09:27:31;;;;;;;3.73;2.17;;;;;;;0.93;89.13;99363.55;1674817;84;21023;-78
2022/01/29 09:29:57;;;;;;;2.07;1.97;;;;;;;0.92;89.16;99338.90;1703968;83;21071;-83
2022/01/29 09:32:24;;;;;;;2.60;2.40;;;;;;;0.92;89.02;99380.44;1703032;83;21047;-82
2022/01/29 09:34:51;;;;;;;1.97;1.80;;;;;;;0.92;88.97;99371.17;1713654;83;21142;-80
2022/01/29 09:37:17;;;;;;;2.00;1.67;;;;;;;0.89;88.98;99371.07;1725071;83;21059;-78
2022/01/29 09:39:43;;;;;;;1.87;1.77;;;;;;;0.88;89.02;99361.48;1696344;83;20977;-79
2022/01/29 09:42:11;;;;;;;2.83;1.80;;;;;;;0.87;88.97;99369.11;1688180;84;21035;-82
2022/01/29 09:44:38;;;;;;;2.13;1.93;;;;;;;0.88;89.06;99400.69;1702515;84;21558;-77
2022/01/29 09:47:05;;;;;;;4.13;2.20;;;;;;;0.90;89.00;99373.22;1674383;84;21059;-80
2022/01/29 09:49:33;;;;;;;2.03;1.83;;;;;;;0.90;88.86;99372.71;1697827;84;21034;-76
2022/01/29 09:52:00;;;;;;;3.13;2.47;;;;;;;0.90;89.05;99372.71;1703419;83;21575;-75
2022/01/29 09:54:26;;;;;;;2.10;1.90;;;;;;;0.88;88.68;99377.38;1674918;82;21018;-75
2022/01/29 09:56:53;;;;;;;3.07;2.77;;;;;;;0.87;88.69;99396.41;1702831;84;21443;-77
2022/01/29 09:59:19;;;;;;;2.20;1.80;;;;;;;0.87;88.69;99364.64;1703023;83;21092;-77
2022/01/29 10:01:46;;;;;;;2.17;1.93;;;;;;;0.84;88.61;99366.36;1677932;83;21555;-78
2022/01/29 10:04:14;;;;;;;2.77;1.70;;;;;;;0.83;88.39;99371.34;1661863;85;21591;-80
2022/01/29 10:06:43;;;;;;;2.37;1.90;;;;;;;0.82;88.11;99371.52;1651498;84;21093;-79
2022/01/29 10:09:11;;;;;;;1.93;1.73;;;;;;;0.84;88.27;99373.48;1739772;82;21056;-81
2022/01/29 10:11:38;;;;;;;1.83;1.73;;;;;;;0.85;88.29;99396.30;1717929;82;21043;-79
2022/01/29 10:14:05;;;;;;;2.23;2.03;;;;;;;0.86;88.26;99404.03;1724483;81;20995;-78
2022/01/29 10:16:33;;;;;;;2.00;1.87;;;;;;;0.85;87.89;99403.73;1722307;83;21586;-83
2022/01/29 10:19:05;;;;;;;1.97;1.87;;;;;;;0.83;87.73;99407.58;1651858;84;21096;-77
2022/01/29 10:21:46;;;;;;;2.95;2.00;;;;;;;0.83;87.89;99404.93;1674662;84;21581;-79
2022/01/29 10:24:17;;;;;;;2.83;2.17;;;;;;;0.84;87.91;99403.42;1674346;84;21043;-83
2022/01/29 10:26:49;;;;;;;2.40;2.20;;;;;;;0.82;87.59;99432.41;1702908;84;21812;-80
2022/01/29 10:29:22;;;;;;;;;;;;;;;0.79;87.45;99391.27;1705315;83;21091;-79
2022/01/29 10:31:55;;;;;;;1.77;1.67;;;;;;;0.77;87.49;99395.93;1662778;84;20131;-81
2022/01/29 10:34:26;;;;;;;4.30;2.83;;;;;;;0.78;87.63;99411.31;1701096;83;21042;-80
2022/01/29 10:37:18;;;;;;;1.60;1.50;;;;;;;0.78;87.83;99433.30;1679682;84;21069;-80
2022/01/29 10:40:00;;;;;;;2.40;2.00;;;;;;;0.77;87.63;99401.72;1702521;84;20958;-82
2022/01/29 10:42:34;;;;;;;2.70;1.67;;;;;;;0.79;87.53;99424.36;1700567;84;21124;-78
2022/01/29 10:45:05;;;;;;;3.10;1.77;;;;;;;0.82;87.46;99411.23;1703381;84;21071;-76
2022/01/29 10:47:56;;;;;;;2.87;2.67;;;;;;;0.83;87.04;99415.52;1703358;84;21038;-76
2022/01/29 10:50:25;;;;;;;1.87;1.67;;;;;;;0.85;86.87;99398.95;1681588;84;21170;-82
2022/01/29 10:52:52;;;;;;;2.27;1.90;;;;;;;0.88;86.63;99420.55;1699580;84;21048;-86
2022/01/29 10:55:19;;;;;;;2.90;2.17;;;;;;;0.91;86.19;99432.59;1661340;83;41193;-81
2022/01/29 10:57:47;;;;;;;3.93;2.50;;;;;;;0.92;85.93;99415.67;1739731;82;21013;-78
2022/01/29 11:00:21;;;;;;;4.47;2.33;;;;;;;0.95;85.41;99417.13;1712231;82;21105;-78
2022/01/29 11:02:48;;;;;;;5.03;2.20;;;;;;;0.93;84.93;99419.96;1732267;82;21144;-80
2022/01/29 11:05:15;;;;;;;2.83;1.80;;;;;;;0.93;84.73;99412.02;1723721;82;20947;-80
2022/01/29 11:07:51;;;;;;;2.47;2.27;;;;;;;0.93;84.39;99425.25;1700426;83;21058;-81
2022/01/29 11:10:19;;;;;;;3.10;2.80;;;;;;;0.96;84.46;99434.12;1676979;84;21187;-83
2022/01/29 11:12:48;;;;;;;3.13;2.43;;;;;;;0.98;84.03;99417.55;1648697;87;21082;-81
2022/01/29 11:15:17;;;;;;;5.00;2.10;;;;;;;1.00;84.01;99424.80;1726188;81;21123;-75
2022/01/29 11:17:48;;;;;;;3.50;2.10;;;;;;;1.01;83.49;99415.03;1723373;82;21052;-71
2022/01/29 11:20:15;;;;;;;2.50;1.90;;;;;;;1.00;83.38;99431.42;1649573;85;21004;-72
2022/01/29 11:22:44;;;;;;;4.47;2.57;;;;;;;1.01;83.24;99430.39;1723412;83;21534;-71
2022/01/29 11:25:14;;;;;;;2.97;1.90;;;;;;;1.00;82.84;99442.02;1728014;81;21508;-82
2022/01/29 11:27:43;;;;;;;1.77;1.67;;;;;;;1.02;82.56;99434.67;1715790;81;21994;-83
2022/01/29 11:30:13;;;;;;;3.70;2.17;;;;;;;1.02;82.40;99458.51;1704841;82;21543;-84
2022/01/29 11:32:53;;;;;;;2.67;2.43;;;;;;;1.02;82.17;99441.30;1715834;82;21048;-80
2022/01/29 11:35:25;;;;;;;2.33;2.10;;;;;;;1.01;82.06;99433.03;1746997;80;21038;-86
2022/01/29 11:37:57;;;;;;;4.07;2.10;;;;;;;1.01;81.78;99437.01;1753246;80;21004;-81
2022/01/29 11:40:31;;;;;;;3.77;2.67;;;;;;;1.01;81.96;99435.69;1749151;80;21022;-83
2022/01/29 11:43:21;;;;;;;3.47;2.50;;;;;;;1.03;82.00;99456.68;1782761;80;20976;-84
2022/01/29 11:46:31;;;;;;;5.00;3.27;;;;;;;1.03;81.75;99454.03;1729296;82;21039;-81
2022/01/29 11:48:58;;;;;;;2.23;1.93;;;;;;;1.01;81.35;99453.43;1709347;81;21050;-76
2022/01/29 11:51:43;;;;;;;3.57;1.87;;;;;;;0.99;81.21;99466.85;1750096;81;21563;-77
2022/01/29 11:54:20;;;;;;;2.80;2.23;;;;;;;1.00;81.11;99458.41;1737102;81;21819;-77
2022/01/29 11:56:48;;;;;;;3.87;2.20;;;;;;;1.03;81.21;99461.98;1733608;81;20995;-80